Time;durP1;ratioP1;P1;durP2;ratioP2;P2;SDS_P1;SDS_P2;PMS_P1;PMS_P2;Temp;Humidity;BMP_temperature;BMP_pressure;BME280_temperature;BME280_humidity;BME280_pressure;Samples;Min_cycle;Max_cycle;Signal;HPM_P1;HPM_P2
2022/10/14 04:00:52;;;;;;;14.27;10.80;;;14.00;99.90;;;;;;5712257;23;20549;-74
2022/10/14 04:03:18;;;;;;;13.43;10.33;;;14.10;99.90;;;;;;4929441;29;20458;-74
2022/10/14 04:05:45;;;;;;;18.17;11.97;;;14.10;99.90;;;;;;4926981;29;20464;-74
2022/10/14 04:08:12;;;;;;;19.63;12.73;;;14.10;99.90;;;;;;4937994;29;20481;-72
2022/10/14 04:10:39;;;;;;;20.50;11.33;;;14.10;99.90;;;;;;4941390;29;20773;-74
2022/10/14 04:13:05;;;;;;;15.10;11.77;;;14.10;99.90;;;;;;4927909;29;20461;-74
2022/10/14 04:15:32;;;;;;;16.87;12.07;;;14.10;99.90;;;;;;4927862;29;20454;-73
2022/10/14 04:18:00;;;;;;;20.70;13.33;;;14.10;99.90;;;;;;4928313;29;20465;-74
2022/10/14 04:20:27;;;;;;;18.40;12.80;;;14.10;99.90;;;;;;4918165;29;20497;-74
2022/10/14 04:22:54;;;;;;;18.83;11.90;;;14.10;99.90;;;;;;4922766;29;20468;-75
2022/10/14 04:25:20;;;;;;;20.73;13.00;;;14.10;99.90;;;;;;4920630;29;20460;-74
2022/10/14 04:27:47;;;;;;;16.80;12.50;;;14.10;99.90;;;;;;4930894;29;20470;-73
2022/10/14 04:30:14;;;;;;;18.50;12.63;;;14.10;99.90;;;;;;4930664;29;20464;-74
2022/10/14 04:32:41;;;;;;;17.50;13.17;;;14.10;99.90;;;;;;4932059;29;21259;-67
2022/10/14 04:35:10;;;;;;;13.70;11.97;;;14.10;99.90;;;;;;4931008;29;20469;-67
2022/10/14 04:37:36;;;;;;;16.53;12.43;;;14.00;99.90;;;;;;4931937;29;20473;-68
2022/10/14 04:40:04;;;;;;;21.77;12.80;;;14.00;99.90;;;;;;4932091;29;20498;-67
2022/10/14 04:42:30;;;;;;;20.47;12.30;;;14.00;99.90;;;;;;4931743;29;20501;-68
2022/10/14 04:44:57;;;;;;;16.60;11.50;;;14.10;99.90;;;;;;4930930;29;21082;-68
2022/10/14 04:47:24;;;;;;;18.13;13.20;;;14.00;99.90;;;;;;4931511;29;20462;-68
2022/10/14 04:49:51;;;;;;;16.83;12.80;;;14.00;99.90;;;;;;4931559;29;20495;-67
2022/10/14 04:52:19;;;;;;;19.80;13.23;;;14.10;99.90;;;;;;4931640;29;20521;-67
2022/10/14 04:54:46;;;;;;;20.00;14.07;;;14.00;99.90;;;;;;4930802;29;20473;-67
2022/10/14 04:57:12;;;;;;;20.27;14.27;;;14.10;99.90;;;;;;4931735;29;20866;-73
2022/10/14 04:59:39;;;;;;;19.63;12.50;;;14.10;99.90;;;;;;4924410;29;20516;-74
2022/10/14 05:02:06;;;;;;;15.87;12.17;;;14.10;99.90;;;;;;4923534;29;21017;-74
2022/10/14 05:04:33;;;;;;;15.13;12.20;;;14.10;99.90;;;;;;4929396;29;20462;-72
2022/10/14 05:06:59;;;;;;;23.27;11.33;;;14.10;99.90;;;;;;4930092;29;20993;-74
2022/10/14 05:09:28;;;;;;;16.97;12.00;;;14.10;99.90;;;;;;4930508;29;20466;-74
2022/10/14 05:11:54;;;;;;;16.13;11.53;;;14.10;99.90;;;;;;4931005;29;20474;-73
2022/10/14 05:14:22;;;;;;;15.43;11.50;;;14.10;99.90;;;;;;4930790;29;20454;-73
2022/10/14 05:16:49;;;;;;;19.67;11.73;;;14.10;99.90;;;;;;4930746;29;20458;-74
2022/10/14 05:19:16;;;;;;;13.63;10.40;;;14.10;99.90;;;;;;4930088;29;20501;-73
2022/10/14 05:21:43;;;;;;;13.33;11.00;;;14.10;99.90;;;;;;4930951;29;21013;-73
2022/10/14 05:24:09;;;;;;;14.23;10.60;;;14.10;99.90;;;;;;4930524;29;20458;-74
2022/10/14 05:26:37;;;;;;;12.10;9.83;;;14.10;99.90;;;;;;4931026;29;20462;-73
2022/10/14 05:29:04;;;;;;;12.03;9.90;;;14.10;99.90;;;;;;4930827;29;20848;-73
2022/10/14 05:31:31;;;;;;;13.27;9.50;;;14.10;99.90;;;;;;4930388;29;20482;-73
2022/10/14 05:33:58;;;;;;;15.07;11.53;;;14.10;99.90;;;;;;4930171;29;20462;-73
2022/10/14 05:36:25;;;;;;;12.60;10.37;;;14.10;99.90;;;;;;4930470;29;20455;-73
2022/10/14 05:38:54;;;;;;;13.17;10.03;;;14.10;99.90;;;;;;4930792;29;20473;-73
2022/10/14 05:41:21;;;;;;;15.37;10.43;;;14.10;99.90;;;;;;4930638;29;20998;-74
2022/10/14 05:43:49;;;;;;;13.20;10.17;;;14.10;99.90;;;;;;4930614;29;20462;-73
2022/10/14 05:46:16;;;;;;;14.30;9.80;;;14.10;99.90;;;;;;4929604;29;20466;-74
2022/10/14 05:48:42;;;;;;;12.60;10.77;;;14.10;99.90;;;;;;4930584;29;20469;-73
2022/10/14 05:51:09;;;;;;;10.80;9.50;;;14.10;99.90;;;;;;4930767;29;20478;-74
2022/10/14 05:53:38;;;;;;;16.97;10.90;;;14.10;99.90;;;;;;4920187;29;20463;-74
2022/10/14 05:56:07;;;;;;;15.57;10.20;;;14.10;99.90;;;;;;4921885;29;20460;-75
2022/10/14 05:58:35;;;;;;;15.50;10.23;;;14.10;99.90;;;;;;4927119;29;20965;-73
2022/10/14 06:01:04;;;;;;;12.60;10.60;;;14.10;99.90;;;;;;4929763;29;20581;-73
2022/10/14 06:03:31;;;;;;;15.97;10.50;;;14.10;99.90;;;;;;4930214;29;20486;-73
2022/10/14 06:05:57;;;;;;;20.03;9.90;;;14.10;99.90;;;;;;4927681;29;20943;-73
2022/10/14 06:08:25;;;;;;;11.87;9.37;;;14.10;99.90;;;;;;4929625;29;20465;-73
2022/10/14 06:10:52;;;;;;;13.07;9.07;;;14.10;99.90;;;;;;4929014;29;20479;-73
2022/10/14 06:13:19;;;;;;;11.77;9.30;;;14.10;99.90;;;;;;4928964;29;20961;-73
2022/10/14 06:15:46;;;;;;;13.07;8.90;;;14.10;99.90;;;;;;4928574;29;20465;-73
2022/10/14 06:18:14;;;;;;;11.23;9.33;;;14.10;99.90;;;;;;4928559;29;20463;-73
2022/10/14 06:20:41;;;;;;;12.30;9.43;;;14.20;99.90;;;;;;4928948;29;20506;-74
2022/10/14 06:23:07;;;;;;;11.70;8.90;;;14.20;99.90;;;;;;4929357;29;20468;-76
2022/10/14 06:25:36;;;;;;;10.20;7.90;;;14.20;99.90;;;;;;4928573;29;20473;-75
2022/10/14 06:28:03;;;;;;;11.87;9.30;;;14.20;99.90;;;;;;4928447;29;20489;-74
2022/10/14 06:30:30;;;;;;;12.37;9.53;;;14.20;99.90;;;;;;4926962;29;20457;-75
2022/10/14 06:32:57;;;;;;;15.80;9.10;;;14.20;99.90;;;;;;4928176;29;20455;-75
2022/10/14 06:35:25;;;;;;;16.80;8.83;;;14.20;99.90;;;;;;4928142;29;20505;-75
2022/10/14 06:37:52;;;;;;;12.20;8.40;;;14.20;99.90;;;;;;4928773;29;20466;-74
2022/10/14 06:40:19;;;;;;;15.47;10.07;;;14.20;99.90;;;;;;4928355;29;20501;-74
2022/10/14 06:42:45;;;;;;;14.80;8.97;;;14.20;99.90;;;;;;4929671;29;20469;-76
2022/10/14 06:45:12;;;;;;;12.93;9.17;;;14.20;99.90;;;;;;4928729;29;20474;-75
2022/10/14 06:47:39;;;;;;;14.77;9.87;;;14.20;99.90;;;;;;4929650;29;20462;-74
2022/10/14 06:50:07;;;;;;;13.40;9.00;;;14.20;99.90;;;;;;4929578;29;20461;-75
2022/10/14 06:52:35;;;;;;;9.10;7.57;;;14.20;99.90;;;;;;4929655;29;20482;-75
2022/10/14 06:55:01;;;;;;;11.53;8.70;;;14.20;99.90;;;;;;4928403;29;20462;-75
2022/10/14 06:57:28;;;;;;;12.07;10.30;;;14.30;99.90;;;;;;4929267;29;20469;-75
2022/10/14 06:59:55;;;;;;;14.60;9.80;;;14.20;99.90;;;;;;4929366;29;20509;-74
2022/10/14 07:02:22;;;;;;;17.90;9.33;;;14.20;99.90;;;;;;4929213;29;20497;-75
2022/10/14 07:04:49;;;;;;;14.83;11.40;;;14.30;99.90;;;;;;4928550;29;20462;-75
2022/10/14 07:07:15;;;;;;;15.50;11.60;;;14.30;99.90;;;;;;4928829;29;20458;-74
2022/10/14 07:09:43;;;;;;;14.30;10.80;;;14.30;99.90;;;;;;4929581;29;20465;-75
2022/10/14 07:12:10;;;;;;;13.70;11.27;;;14.30;99.90;;;;;;4929051;29;21015;-75
2022/10/14 07:14:37;;;;;;;13.10;11.20;;;14.30;99.90;;;;;;4928268;29;20469;-74
2022/10/14 07:17:04;;;;;;;15.70;12.27;;;14.30;99.90;;;;;;4928774;29;20468;-76
2022/10/14 07:19:31;;;;;;;14.67;11.50;;;14.30;99.90;;;;;;4929167;29;20462;-75
2022/10/14 07:21:57;;;;;;;14.50;11.47;;;14.30;99.90;;;;;;4928461;29;20501;-75
2022/10/14 07:24:24;;;;;;;16.27;11.40;;;14.30;99.90;;;;;;4927861;29;20458;-75
2022/10/14 07:26:52;;;;;;;16.53;10.90;;;14.40;99.90;;;;;;4929046;29;20473;-75
2022/10/14 07:29:19;;;;;;;18.97;11.33;;;14.40;99.90;;;;;;4928857;29;20825;-75
2022/10/14 07:31:46;;;;;;;17.97;11.27;;;14.40;99.90;;;;;;4926961;29;20486;-75
2022/10/14 07:34:13;;;;;;;15.47;10.80;;;14.40;99.90;;;;;;4928190;29;20442;-75
2022/10/14 07:36:40;;;;;;;30.73;11.10;;;14.40;99.90;;;;;;4928580;29;20842;-75
2022/10/14 07:39:06;;;;;;;31.33;10.30;;;14.40;99.90;;;;;;4928521;29;20464;-75
2022/10/14 07:41:33;;;;;;;14.03;10.37;;;14.40;99.90;;;;;;4928622;29;20502;-74
2022/10/14 07:44:07;;;;;;;17.83;10.00;;;14.40;99.90;;;;;;4928105;29;20462;-74
2022/10/14 07:46:36;;;;;;;10.50;9.30;;;14.40;99.90;;;;;;4928740;29;20438;-75
2022/10/14 07:49:05;;;;;;;13.03;10.70;;;14.40;99.90;;;;;;4928504;29;20465;-75
2022/10/14 07:51:33;;;;;;;15.20;10.00;;;14.40;99.90;;;;;;4928610;29;20477;-75
2022/10/14 07:54:02;;;;;;;14.57;9.83;;;14.40;99.90;;;;;;4927900;29;20903;-77
2022/10/14 07:56:29;;;;;;;14.07;9.70;;;14.50;99.90;;;;;;4927623;29;20470;-76
2022/10/14 07:58:56;;;;;;;12.93;9.37;;;14.50;99.90;;;;;;4928503;29;20462;-76
2022/10/14 08:01:24;;;;;;;12.50;9.60;;;14.50;99.90;;;;;;4928165;29;20525;-76
2022/10/14 08:03:52;;;;;;;17.93;10.00;;;14.60;99.90;;;;;;4928297;29;20467;-76
2022/10/14 08:06:19;;;;;;;16.77;11.00;;;14.60;99.90;;;;;;4927641;29;20593;-77
2022/10/14 08:08:46;;;;;;;10.90;9.13;;;14.70;99.90;;;;;;4928608;29;20458;-75
2022/10/14 08:11:15;;;;;;;13.47;10.50;;;14.70;99.90;;;;;;4928341;29;20478;-76
2022/10/14 08:13:43;;;;;;;16.43;11.03;;;14.70;99.90;;;;;;4928283;29;20466;-75
2022/10/14 08:16:14;;;;;;;15.13;9.07;;;14.80;99.90;;;;;;4927573;29;20454;-75
2022/10/14 08:18:43;;;;;;;13.50;9.50;;;14.80;99.90;;;;;;4928547;29;20466;-75
2022/10/14 08:21:09;;;;;;;10.47;9.10;;;14.90;99.90;;;;;;4926809;29;20503;-75
2022/10/14 08:23:36;;;;;;;13.97;9.50;;;15.00;99.90;;;;;;4927655;29;20470;-76
2022/10/14 08:26:03;;;;;;;13.63;9.60;;;15.10;99.90;;;;;;4927426;29;20467;-77
2022/10/14 08:28:30;;;;;;;16.03;9.37;;;15.20;99.90;;;;;;4928161;29;20467;-76
2022/10/14 08:30:57;;;;;;;11.70;8.57;;;15.20;99.90;;;;;;4927623;29;20478;-76
2022/10/14 08:33:23;;;;;;;12.60;9.03;;;15.30;99.90;;;;;;4928171;29;20462;-77
2022/10/14 08:35:52;;;;;;;12.10;8.90;;;15.30;99.90;;;;;;4926397;29;20462;-76
2022/10/14 08:38:23;;;;;;;12.07;8.17;;;15.40;99.90;;;;;;4928059;29;20470;-76
2022/10/14 08:41:06;;;;;;;11.13;7.33;;;15.40;99.90;;;;;;4927840;29;20531;-75
2022/10/14 08:43:36;;;;;;;10.83;7.67;;;15.50;99.90;;;;;;4928200;29;20450;-76
2022/10/14 08:46:11;;;;;;;15.20;7.90;;;15.50;99.90;;;;;;4927435;29;20458;-75
2022/10/14 08:48:38;;;;;;;11.73;7.70;;;15.50;99.90;;;;;;4928091;29;20447;-75
2022/10/14 08:51:13;;;;;;;11.47;7.40;;;15.60;99.90;;;;;;4927569;29;20481;-75
2022/10/14 08:53:44;;;;;;;10.90;8.07;;;15.70;99.90;;;;;;4928069;29;20446;-75
2022/10/14 08:56:13;;;;;;;10.80;6.90;;;15.70;99.90;;;;;;4927295;29;20453;-76
2022/10/14 08:58:42;;;;;;;14.90;6.87;;;15.70;99.90;;;;;;4928023;29;20462;-77
2022/10/14 09:01:16;;;;;;;8.03;6.50;;;15.80;99.90;;;;;;4927446;29;20514;-76
2022/10/14 09:03:43;;;;;;;8.17;6.50;;;15.80;99.90;;;;;;4927099;29;20861;-75
2022/10/14 09:06:18;;;;;;;9.87;6.47;;;15.80;99.90;;;;;;4925647;29;20469;-76
2022/10/14 09:08:49;;;;;;;8.93;6.20;;;15.80;99.90;;;;;;4930699;29;21107;-75
2022/10/14 09:11:19;;;;;;;8.70;7.03;;;15.90;99.90;;;;;;4931206;29;20485;-74
2022/10/14 09:13:48;;;;;;;8.87;6.33;;;15.90;99.90;;;;;;4931214;29;20470;-77
2022/10/14 09:16:19;;;;;;;6.70;5.80;;;15.90;99.90;;;;;;4930361;29;20469;-75
2022/10/14 09:18:50;;;;;;;9.20;6.13;;;15.90;99.90;;;;;;4930659;29;20454;-77
2022/10/14 09:21:37;;;;;;;10.67;6.10;;;15.90;99.90;;;;;;4930888;29;20501;-76
2022/10/14 09:24:12;;;;;;;14.53;6.30;;;16.00;99.90;;;;;;4930361;29;20828;-76
2022/10/14 09:26:40;;;;;;;9.00;6.63;;;16.00;99.90;;;;;;4930898;29;20485;-75
2022/10/14 09:29:20;;;;;;;7.10;5.00;;;16.10;99.90;;;;;;4930836;29;20462;-77
2022/10/14 09:31:48;;;;;;;7.80;6.10;;;16.10;99.90;;;;;;4931042;29;20474;-75
2022/10/14 09:34:19;;;;;;;7.87;6.57;;;16.10;99.90;;;;;;4929225;29;20469;-76
2022/10/14 09:36:50;;;;;;;8.97;5.90;;;16.10;99.90;;;;;;4930644;29;20970;-75
2022/10/14 09:39:17;;;;;;;11.20;6.00;;;16.10;99.90;;;;;;4931054;29;20469;-75
2022/10/14 09:41:49;;;;;;;9.60;6.03;;;16.10;99.90;;;;;;4930588;29;20502;-75
2022/10/14 09:44:20;;;;;;;9.10;5.83;;;16.10;99.90;;;;;;4930285;29;20463;-76
2022/10/14 09:46:49;;;;;;;8.13;6.23;;;16.10;99.90;;;;;;4930719;29;20454;-75
2022/10/14 09:49:19;;;;;;;8.80;6.17;;;16.20;99.90;;;;;;4930563;29;21030;-75
2022/10/14 09:51:47;;;;;;;7.30;5.40;;;16.20;99.90;;;;;;4930788;29;20478;-76
2022/10/14 09:54:24;;;;;;;10.73;5.73;;;16.20;99.90;;;;;;4929743;29;20470;-75
2022/10/14 09:57:00;;;;;;;11.10;5.60;;;16.20;99.90;;;;;;4930247;29;20446;-75
2022/10/14 09:59:27;;;;;;;11.03;6.20;;;16.30;99.90;;;;;;4930469;29;20465;-76
2022/10/14 10:01:56;;;;;;;8.30;5.83;;;16.30;99.90;;;;;;4929860;29;20508;-75
2022/10/14 10:04:32;;;;;;;7.40;5.50;;;16.30;99.90;;;;;;4929390;29;20488;-74
2022/10/14 10:07:04;;;;;;;6.70;5.33;;;16.30;99.90;;;;;;4930334;29;20446;-75
2022/10/14 10:09:31;;;;;;;9.13;5.40;;;16.40;99.90;;;;;;4930398;29;20574;-76
2022/10/14 10:11:58;;;;;;;7.90;5.50;;;16.40;99.90;;;;;;4930215;29;20474;-76
2022/10/14 10:14:28;;;;;;;8.87;6.13;;;16.40;99.90;;;;;;4929412;29;20471;-77
2022/10/14 10:17:16;;;;;;;9.83;5.83;;;16.40;99.90;;;;;;4929583;29;20466;-77
2022/10/14 10:19:44;;;;;;;7.60;5.87;;;16.50;99.90;;;;;;4928764;29;20466;-76
2022/10/14 10:22:22;;;;;;;8.30;5.57;;;16.50;99.90;;;;;;4929857;29;20505;-76
2022/10/14 10:24:50;;;;;;;8.13;6.10;;;16.50;99.90;;;;;;4928934;29;20446;-75
2022/10/14 10:27:23;;;;;;;7.97;5.80;;;16.50;99.90;;;;;;4913433;29;20546;-75
2022/10/14 10:29:50;;;;;;;9.13;5.70;;;16.50;99.90;;;;;;4910932;29;20463;-75
2022/10/14 10:32:24;;;;;;;7.10;5.70;;;16.40;99.90;;;;;;4910847;29;20988;-75
2022/10/14 10:35:08;;;;;;;8.07;5.93;;;16.40;99.90;;;;;;4909024;29;21348;-75
2022/10/14 10:37:49;;;;;;;7.83;5.20;;;16.50;99.90;;;;;;4910785;29;20443;-75
2022/10/14 10:40:31;;;;;;;6.50;5.40;;;16.50;99.90;;;;;;4910843;29;20478;-75
2022/10/14 10:43:21;;;;;;;8.80;5.90;;;16.50;99.90;;;;;;4910072;29;20443;-75
2022/10/14 10:46:00;;;;;;;6.43;5.60;;;16.60;99.90;;;;;;4909815;29;20964;-75
2022/10/14 10:48:35;;;;;;;6.20;5.60;;;16.60;99.90;;;;;;4910535;29;20461;-75
2022/10/14 10:51:07;;;;;;;5.77;4.90;;;16.70;99.90;;;;;;4910331;29;20470;-76
2022/10/14 10:53:49;;;;;;;9.10;6.30;;;16.70;99.90;;;;;;4910475;29;20685;-75
2022/10/14 10:56:30;;;;;;;7.53;5.53;;;16.80;99.90;;;;;;4909847;29;20467;-75
2022/10/14 10:59:10;;;;;;;6.43;5.33;;;16.90;99.90;;;;;;4910572;29;20850;-75
2022/10/14 11:01:49;;;;;;;9.73;5.47;;;17.00;99.90;;;;;;4910130;29;20507;-76
2022/10/14 11:04:30;;;;;;;6.97;5.67;;;17.10;99.90;;;;;;4909750;29;21054;-75
2022/10/14 11:12:52;;;;;;;8.50;5.57;;;17.20;99.90;;;;;;4908655;29;20439;-75
2022/10/14 11:15:30;;;;;;;8.73;5.40;;;17.30;99.90;;;;;;4908384;29;20465;-75
2022/10/14 11:18:03;;;;;;;7.60;5.43;;;17.30;99.90;;;;;;4910052;29;20910;-75
2022/10/14 11:20:37;;;;;;;11.60;5.80;;;17.30;99.90;;;;;;4908986;29;20535;-74
2022/10/14 11:23:33;;;;;;;9.40;6.30;;;17.30;99.90;;;;;;4909787;29;20458;-75
2022/10/14 11:26:07;;;;;;;8.20;5.40;;;17.50;99.90;;;;;;4908915;29;20456;-74
2022/10/14 11:28:45;;;;;;;8.27;5.30;;;17.50;99.90;;;;;;4910260;29;20446;-75
2022/10/14 11:31:26;;;;;;;9.13;4.97;;;17.50;99.90;;;;;;4910045;29;20478;-77
2022/10/14 11:34:06;;;;;;;11.90;5.00;;;17.50;99.90;;;;;;4909757;29;20452;-75
2022/10/14 11:36:44;;;;;;;8.07;5.00;;;17.60;99.90;;;;;;4909886;29;20459;-76
2022/10/14 11:39:31;;;;;;;7.67;4.93;;;17.60;99.90;;;;;;4909725;29;20459;-76
2022/10/14 11:42:12;;;;;;;6.40;4.97;;;17.60;99.90;;;;;;4909390;29;20502;-76
2022/10/14 11:44:41;;;;;;;7.87;4.90;;;17.60;99.90;;;;;;4908504;29;20561;-76
2022/10/14 11:47:14;;;;;;;9.53;5.40;;;17.60;99.90;;;;;;4909919;29;20554;-76
2022/10/14 11:49:46;;;;;;;6.80;4.67;;;17.60;99.90;;;;;;4909575;29;20459;-75
2022/10/14 11:52:20;;;;;;;5.87;4.30;;;17.60;99.90;;;;;;4910183;29;20487;-75
2022/10/14 11:54:50;;;;;;;10.13;5.07;;;17.70;99.90;;;;;;4909242;29;20890;-75
2022/10/14 11:57:26;;;;;;;6.00;5.17;;;17.70;99.90;;;;;;4909548;29;20465;-75
2022/10/14 12:02:47;;;;;;;9.53;5.40;;;17.70;99.90;;;;;;4908975;29;20490;-76
2022/10/14 12:05:20;;;;;;;6.63;4.90;;;17.70;99.90;;;;;;4909217;29;20463;-76
2022/10/14 12:07:59;;;;;;;10.00;5.00;;;17.70;99.90;;;;;;4910241;29;20474;-75
2022/10/14 12:10:31;;;;;;;11.23;6.30;;;17.80;99.90;;;;;;4910354;29;20455;-76
2022/10/14 12:13:06;;;;;;;10.07;5.60;;;17.70;99.90;;;;;;4909575;29;20523;-75
2022/10/14 12:15:36;;;;;;;8.10;5.70;;;17.70;99.90;;;;;;4909472;29;20446;-76
2022/10/14 12:18:05;;;;;;;8.43;6.23;;;17.60;99.90;;;;;;4910058;29;21283;-76
2022/10/14 12:20:38;;;;;;;8.60;5.90;;;17.50;99.90;;;;;;4909691;29;20821;-74
2022/10/14 12:23:12;;;;;;;7.23;6.00;;;17.20;99.90;;;;;;4910341;29;20505;-76
2022/10/14 12:25:53;;;;;;;10.67;6.17;;;17.10;99.90;;;;;;4908841;29;20486;-75
2022/10/14 12:28:25;;;;;;;12.40;6.53;;;17.10;99.90;;;;;;4909164;29;20462;-77
2022/10/14 12:30:52;;;;;;;11.80;6.07;;;17.10;99.90;;;;;;4909034;29;20494;-76
2022/10/14 12:33:19;;;;;;;10.73;6.23;;;17.10;99.90;;;;;;4909337;29;20463;-75
2022/10/14 12:35:50;;;;;;;13.43;7.40;;;17.20;99.90;;;;;;4908732;29;20463;-76
2022/10/14 12:38:18;;;;;;;14.50;9.03;;;17.20;99.90;;;;;;4909420;29;20474;-76
2022/10/14 12:40:48;;;;;;;13.30;9.30;;;17.30;99.90;;;;;;4908876;29;20992;-75
2022/10/14 12:43:19;;;;;;;13.77;8.00;;;17.30;99.90;;;;;;4912106;29;20503;-75
2022/10/14 12:46:12;;;;;;;10.73;6.77;;;17.40;99.90;;;;;;4911761;29;20455;-75
2022/10/14 12:48:49;;;;;;;8.90;6.60;;;17.40;99.90;;;;;;4912728;29;20466;-75
2022/10/14 12:51:19;;;;;;;7.93;6.20;;;17.40;99.90;;;;;;4912497;29;20485;-75
2022/10/14 12:53:54;;;;;;;10.70;6.60;;;17.50;99.90;;;;;;4912505;29;21209;-76
2022/10/14 12:56:40;;;;;;;9.50;7.30;;;17.50;99.90;;;;;;4911751;29;20450;-75
2022/10/14 12:59:09;;;;;;;14.20;9.17;;;17.60;99.90;;;;;;4912842;29;20442;-75
2022/10/14 13:01:43;;;;;;;11.87;7.93;;;17.60;99.90;;;;;;4912193;29;20510;-76
2022/10/14 13:04:18;;;;;;;9.80;7.80;;;17.60;99.90;;;;;;4911927;29;20463;-75
2022/10/14 13:06:44;;;;;;;10.93;8.13;;;17.60;99.90;;;;;;4912521;29;20554;-76
2022/10/14 13:09:30;;;;;;;18.13;8.73;;;17.70;99.90;;;;;;4912289;29;20551;-76
2022/10/14 13:12:45;;;;;;;11.13;7.23;;;17.80;99.90;;;;;;4910914;29;20505;-76
2022/10/14 13:15:58;;;;;;;8.40;6.90;;;17.90;99.90;;;;;;4911712;29;20487;-76
2022/10/14 13:18:53;;;;;;;10.97;7.23;;;17.90;99.90;;;;;;4911437;29;20467;-76
2022/10/14 13:21:30;;;;;;;11.03;6.73;;;18.00;99.90;;;;;;4912080;29;20487;-76
2022/10/14 13:24:00;;;;;;;11.10;6.80;;;18.00;99.90;;;;;;4911669;29;20451;-76
2022/10/14 13:26:36;;;;;;;9.07;6.10;;;18.20;99.90;;;;;;4911510;29;20459;-76
2022/10/14 13:29:14;;;;;;;7.70;5.40;;;18.30;99.90;;;;;;4911891;29;20534;-76
2022/10/14 13:31:50;;;;;;;8.80;6.00;;;18.30;99.90;;;;;;4911981;29;20489;-76
2022/10/14 13:34:28;;;;;;;9.67;5.60;;;18.30;99.90;;;;;;4912346;29;20478;-74
2022/10/14 13:37:07;;;;;;;8.53;6.17;;;18.30;99.90;;;;;;4911422;29;20474;-75
2022/10/14 13:39:34;;;;;;;9.17;5.40;;;18.30;99.90;;;;;;4911874;29;20444;-75
2022/10/14 13:42:02;;;;;;;6.43;5.67;;;18.30;99.90;;;;;;4911397;29;20505;-76
2022/10/14 13:44:29;;;;;;;8.77;5.70;;;18.30;99.90;;;;;;4911239;29;20459;-75
2022/10/14 13:46:56;;;;;;;9.70;5.83;;;18.40;99.90;;;;;;4911812;29;20816;-76
2022/10/14 13:49:30;;;;;;;12.67;6.00;;;18.50;99.90;;;;;;4911413;29;20463;-76
2022/10/14 13:52:03;;;;;;;8.80;5.60;;;18.50;99.90;;;;;;4910970;29;20482;-76
2022/10/14 13:54:30;;;;;;;7.63;5.43;;;18.60;99.90;;;;;;4908573;29;20918;-76
2022/10/14 13:56:59;;;;;;;7.00;4.17;;;18.60;99.90;;;;;;4911388;29;20474;-76
2022/10/14 13:59:27;;;;;;;6.30;4.13;;;18.60;99.90;;;;;;4911503;29;21119;-76
2022/10/14 14:01:56;;;;;;;4.63;3.73;;;18.60;99.90;;;;;;4910895;29;20499;-76
2022/10/14 14:04:25;;;;;;;5.70;3.43;;;18.60;99.90;;;;;;4910820;29;20464;-75
2022/10/14 14:06:53;;;;;;;4.53;3.97;;;18.70;99.90;;;;;;4911384;29;21104;-77
2022/10/14 14:09:23;;;;;;;7.03;3.37;;;18.70;99.90;;;;;;4911480;29;20460;-76
2022/10/14 14:11:52;;;;;;;5.00;3.40;;;18.60;99.90;;;;;;4911431;29;20479;-76
2022/10/14 14:14:22;;;;;;;5.83;2.90;;;18.60;99.90;;;;;;4910630;29;20469;-76
2022/10/14 14:16:53;;;;;;;5.20;3.03;;;18.60;99.90;;;;;;4911320;29;20467;-76
2022/10/14 14:19:24;;;;;;;4.67;3.30;;;18.60;99.90;;;;;;4911187;29;20467;-76
2022/10/14 14:21:51;;;;;;;5.20;2.57;;;18.60;99.90;;;;;;4910138;29;20499;-77
2022/10/14 14:24:22;;;;;;;3.73;2.97;;;18.60;99.90;;;;;;4910137;29;20464;-76
2022/10/14 14:26:52;;;;;;;5.50;3.30;;;18.60;99.90;;;;;;4910998;29;20469;-76
2022/10/14 14:29:22;;;;;;;4.40;3.60;;;18.50;99.90;;;;;;4911600;29;20494;-77
2022/10/14 14:31:49;;;;;;;6.70;3.47;;;18.50;99.90;;;;;;4910894;29;20494;-77
2022/10/14 14:34:18;;;;;;;3.80;2.87;;;18.50;99.90;;;;;;4910112;29;21012;-74
2022/10/14 14:36:46;;;;;;;7.43;2.97;;;18.50;99.90;;;;;;4910935;29;20482;-78
2022/10/14 14:39:23;;;;;;;5.43;2.87;;;18.50;99.90;;;;;;4910657;29;20485;-76
2022/10/14 14:41:51;;;;;;;5.73;2.20;;;18.50;99.90;;;;;;4910943;29;20567;-76
2022/10/14 14:44:21;;;;;;;6.80;3.00;;;18.50;99.90;;;;;;4910331;29;20490;-75
2022/10/14 14:46:49;;;;;;;6.07;2.97;;;18.50;99.90;;;;;;4911272;29;20458;-77
2022/10/14 14:49:18;;;;;;;5.17;2.57;;;18.50;99.90;;;;;;4910886;29;20463;-75
2022/10/14 14:51:45;;;;;;;3.17;2.70;;;18.50;99.90;;;;;;4910305;29;20868;-75
2022/10/14 14:54:17;;;;;;;4.30;2.77;;;18.50;99.90;;;;;;4909515;29;20451;-75
2022/10/14 14:56:48;;;;;;;6.90;2.57;;;18.50;99.90;;;;;;4910414;29;20465;-75
2022/10/14 14:59:27;;;;;;;5.80;3.17;;;18.50;99.90;;;;;;4910479;29;20450;-75
2022/10/14 15:01:56;;;;;;;4.37;2.77;;;18.50;99.90;;;;;;4910264;29;20482;-75
2022/10/14 15:04:25;;;;;;;7.33;2.67;;;18.30;99.90;;;;;;4909086;29;20463;-75
2022/10/14 15:06:59;;;;;;;2.13;1.73;;;18.30;99.90;;;;;;4910527;29;20463;-75
2022/10/14 15:09:34;;;;;;;4.33;2.10;;;18.00;99.90;;;;;;4910180;29;20482;-75
2022/10/14 15:12:05;;;;;;;7.30;2.37;;;17.90;99.90;;;;;;4910156;29;20847;-75
2022/10/14 15:14:36;;;;;;;2.70;1.50;;;17.90;99.90;;;;;;4911806;29;20478;-75
2022/10/14 15:17:04;;;;;;;3.17;2.20;;;17.80;99.90;;;;;;4916982;29;20822;-75
2022/10/14 15:19:34;;;;;;;1.63;1.53;;;17.70;99.90;;;;;;4907590;29;20828;-75
2022/10/14 15:22:29;;;;;;;3.40;2.10;;;17.60;99.90;;;;;;4898111;29;20484;-75
2022/10/14 15:25:01;;;;;;;7.47;2.43;;;17.50;99.90;;;;;;4918032;29;20466;-75
2022/10/14 15:27:44;;;;;;;5.70;2.10;;;17.50;99.90;;;;;;4928654;29;20463;-75
2022/10/14 15:30:30;;;;;;;2.70;1.93;;;17.50;99.90;;;;;;4921867;29;20454;-75
2022/10/14 15:33:03;;;;;;;4.43;2.30;;;17.50;99.90;;;;;;4917987;29;20466;-78
2022/10/14 15:35:31;;;;;;;3.93;2.30;;;17.40;99.90;;;;;;4919735;29;20461;-75
2022/10/14 15:37:57;;;;;;;2.70;2.17;;;17.40;99.90;;;;;;4919650;29;20470;-76
2022/10/14 15:40:28;;;;;;;2.80;2.30;;;17.40;99.90;;;;;;4919010;29;20464;-75
2022/10/14 15:42:56;;;;;;;2.80;1.70;;;17.40;99.90;;;;;;4919659;29;21181;-75
2022/10/14 15:45:24;;;;;;;2.60;2.13;;;17.40;99.90;;;;;;4919283;29;20468;-75
2022/10/14 15:48:06;;;;;;;3.63;1.80;;;17.50;99.90;;;;;;4916111;29;20463;-75
2022/10/14 15:50:38;;;;;;;3.10;2.23;;;17.40;99.90;;;;;;4912387;29;20491;-75
2022/10/14 15:53:05;;;;;;;3.43;2.60;;;17.40;99.90;;;;;;4926183;29;20451;-78
2022/10/14 15:55:34;;;;;;;4.67;2.57;;;17.40;99.90;;;;;;4911202;29;20459;-72
2022/10/14 15:58:04;;;;;;;5.30;2.30;;;17.40;99.90;;;;;;4911648;29;20603;-76
2022/10/14 16:00:31;;;;;;;4.20;2.70;;;17.40;99.90;;;;;;4911874;29;20494;-72
2022/10/14 16:02:59;;;;;;;4.10;3.37;;;17.40;99.90;;;;;;4927624;29;20490;-73
2022/10/14 16:05:27;;;;;;;4.10;3.57;;;17.40;99.90;;;;;;4911485;29;20971;-73
2022/10/14 16:07:55;;;;;;;4.73;3.27;;;17.30;99.90;;;;;;4911538;29;20469;-73
2022/10/14 16:10:23;;;;;;;6.57;3.70;;;17.30;99.90;;;;;;4911647;29;20816;-74
2022/10/14 16:12:50;;;;;;;3.57;3.20;;;17.30;99.90;;;;;;4916547;29;20458;-73
2022/10/14 16:15:28;;;;;;;5.20;3.30;;;17.30;99.90;;;;;;4929385;29;20459;-73
2022/10/14 16:17:55;;;;;;;5.33;3.13;;;17.30;99.90;;;;;;4932732;29;20446;-74
2022/10/14 16:20:22;;;;;;;5.33;3.50;;;17.30;99.90;;;;;;4934341;29;20835;-74
2022/10/14 16:22:52;;;;;;;10.97;3.53;;;17.30;99.90;;;;;;4934048;29;21234;-75
2022/10/14 16:25:23;;;;;;;3.87;3.47;;;17.40;99.90;;;;;;4933869;29;20458;-74
2022/10/14 16:27:51;;;;;;;4.93;3.57;;;17.30;99.90;;;;;;4933953;29;20872;-74
2022/10/14 16:30:18;;;;;;;6.27;2.90;;;17.30;99.90;;;;;;4934272;29;20466;-81
2022/10/14 16:32:47;;;;;;;4.93;2.80;;;17.30;99.90;;;;;;4934471;29;20555;-73
2022/10/14 16:35:14;;;;;;;9.83;3.20;;;17.20;99.90;;;;;;4933588;29;20462;-73
2022/10/14 16:37:40;;;;;;;3.03;2.53;;;17.20;99.90;;;;;;4934200;29;20469;-75
2022/10/14 16:40:10;;;;;;;3.93;2.90;;;17.30;99.90;;;;;;4933911;29;20472;-75
2022/10/14 16:42:37;;;;;;;2.73;2.50;;;17.30;99.90;;;;;;4933796;29;20501;-73
2022/10/14 16:45:05;;;;;;;2.50;2.30;;;17.30;99.90;;;;;;4933406;29;20465;-74
2022/10/14 16:47:31;;;;;;;3.33;2.27;;;17.30;99.90;;;;;;4933854;29;20477;-73
2022/10/14 16:50:00;;;;;;;2.90;2.40;;;17.20;99.90;;;;;;4933927;29;20466;-73
2022/10/14 16:52:26;;;;;;;5.70;3.20;;;17.30;99.90;;;;;;4933670;29;21206;-77
2022/10/14 16:54:54;;;;;;;3.63;2.43;;;17.30;99.90;;;;;;4933045;29;20501;-74
2022/10/14 16:57:20;;;;;;;3.53;2.33;;;17.30;99.90;;;;;;4934139;29;20470;-73
2022/10/14 16:59:47;;;;;;;3.03;2.73;;;17.20;99.90;;;;;;4933741;29;21380;-74
2022/10/14 17:02:16;;;;;;;3.23;2.33;;;17.10;99.90;;;;;;4933453;29;20490;-74
2022/10/14 17:04:45;;;;;;;4.10;2.40;;;17.00;99.90;;;;;;4932078;29;20500;-77
2022/10/14 17:07:16;;;;;;;3.47;2.57;;;16.90;99.90;;;;;;4931024;29;20494;-78